sensor_id;sensor_type;location;lat;lon;timestamp;P1;durP1;ratioP1;P2;durP2;ratioP2
24305;SDS011;12423;48.768;8.850;2023-11-19T00:00:11;751.45;;;682.35;;
24305;SDS011;12423;48.768;8.850;2023-11-19T00:02:40;766.13;;;697.03;;
24305;SDS011;12423;48.768;8.850;2023-11-19T00:05:09;761.03;;;691.80;;
24305;SDS011;12423;48.768;8.850;2023-11-19T00:07:39;765.65;;;695.90;;
24305;SDS011;12423;48.768;8.850;2023-11-19T00:10:08;773.93;;;702.63;;
24305;SDS011;12423;48.768;8.850;2023-11-19T00:12:37;762.58;;;692.55;;
24305;SDS011;12423;48.768;8.850;2023-11-19T00:15:07;767.60;;;697.55;;
24305;SDS011;12423;48.768;8.850;2023-11-19T00:17:38;764.80;;;693.30;;
24305;SDS011;12423;48.768;8.850;2023-11-19T00:20:07;749.45;;;680.83;;
24305;SDS011;12423;48.768;8.850;2023-11-19T00:22:35;763.97;;;694.05;;
24305;SDS011;12423;48.768;8.850;2023-11-19T00:25:14;770.27;;;700.77;;
24305;SDS011;12423;48.768;8.850;2023-11-19T00:27:42;760.78;;;692.78;;
24305;SDS011;12423;48.768;8.850;2023-11-19T00:30:12;781.53;;;712.40;;
24305;SDS011;12423;48.768;8.850;2023-11-19T00:32:42;782.05;;;710.35;;
24305;SDS011;12423;48.768;8.850;2023-11-19T00:35:09;770.50;;;700.85;;
24305;SDS011;12423;48.768;8.850;2023-11-19T00:37:37;776.97;;;706.17;;
24305;SDS011;12423;48.768;8.850;2023-11-19T00:40:06;786.23;;;715.67;;
24305;SDS011;12423;48.768;8.850;2023-11-19T00:42:37;778.37;;;707.20;;
24305;SDS011;12423;48.768;8.850;2023-11-19T00:45:05;791.30;;;721.63;;
24305;SDS011;12423;48.768;8.850;2023-11-19T00:47:37;771.72;;;703.13;;
24305;SDS011;12423;48.768;8.850;2023-11-19T00:50:06;795.78;;;725.55;;
24305;SDS011;12423;48.768;8.850;2023-11-19T00:52:36;789.25;;;717.42;;
24305;SDS011;12423;48.768;8.850;2023-11-19T00:55:04;788.63;;;718.63;;
24305;SDS011;12423;48.768;8.850;2023-11-19T00:57:33;776.65;;;705.22;;
24305;SDS011;12423;48.768;8.850;2023-11-19T01:00:02;781.35;;;708.88;;
24305;SDS011;12423;48.768;8.850;2023-11-19T01:02:35;787.30;;;714.80;;
24305;SDS011;12423;48.768;8.850;2023-11-19T01:05:07;803.33;;;729.37;;
24305;SDS011;12423;48.768;8.850;2023-11-19T01:07:36;810.33;;;737.63;;
24305;SDS011;12423;48.768;8.850;2023-11-19T01:10:04;803.95;;;731.33;;
24305;SDS011;12423;48.768;8.850;2023-11-19T01:12:33;813.55;;;745.03;;
24305;SDS011;12423;48.768;8.850;2023-11-19T01:15:04;797.05;;;727.13;;
24305;SDS011;12423;48.768;8.850;2023-11-19T01:17:33;791.97;;;721.70;;
24305;SDS011;12423;48.768;8.850;2023-11-19T01:20:01;813.97;;;742.67;;
24305;SDS011;12423;48.768;8.850;2023-11-19T01:22:33;804.72;;;733.40;;
24305;SDS011;12423;48.768;8.850;2023-11-19T01:25:01;798.08;;;726.53;;
24305;SDS011;12423;48.768;8.850;2023-11-19T01:27:29;797.97;;;726.83;;
24305;SDS011;12423;48.768;8.850;2023-11-19T01:29:57;812.38;;;740.92;;
24305;SDS011;12423;48.768;8.850;2023-11-19T01:32:25;797.50;;;729.55;;
24305;SDS011;12423;48.768;8.850;2023-11-19T01:34:53;795.85;;;728.22;;
24305;SDS011;12423;48.768;8.850;2023-11-19T01:37:21;800.30;;;730.53;;
24305;SDS011;12423;48.768;8.850;2023-11-19T01:39:50;796.95;;;727.55;;
24305;SDS011;12423;48.768;8.850;2023-11-19T01:42:20;808.78;;;738.65;;
24305;SDS011;12423;48.768;8.850;2023-11-19T01:44:55;792.77;;;723.93;;
24305;SDS011;12423;48.768;8.850;2023-11-19T01:47:25;812.00;;;740.30;;
24305;SDS011;12423;48.768;8.850;2023-11-19T01:49:54;813.40;;;741.30;;
24305;SDS011;12423;48.768;8.850;2023-11-19T01:52:23;812.83;;;740.35;;
24305;SDS011;12423;48.768;8.850;2023-11-19T01:54:52;805.08;;;733.65;;
24305;SDS011;12423;48.768;8.850;2023-11-19T01:57:21;809.72;;;738.03;;
24305;SDS011;12423;48.768;8.850;2023-11-19T01:59:50;815.93;;;743.33;;
24305;SDS011;12423;48.768;8.850;2023-11-19T02:02:19;818.20;;;744.92;;
24305;SDS011;12423;48.768;8.850;2023-11-19T02:04:49;830.78;;;756.97;;
24305;SDS011;12423;48.768;8.850;2023-11-19T02:07:18;828.35;;;754.40;;
24305;SDS011;12423;48.768;8.850;2023-11-19T02:09:47;833.40;;;760.47;;
24305;SDS011;12423;48.768;8.850;2023-11-19T02:12:16;820.40;;;745.45;;
24305;SDS011;12423;48.768;8.850;2023-11-19T02:14:43;827.95;;;754.30;;
24305;SDS011;12423;48.768;8.850;2023-11-19T02:17:24;821.92;;;748.38;;
24305;SDS011;12423;48.768;8.850;2023-11-19T02:19:53;826.97;;;753.05;;
24305;SDS011;12423;48.768;8.850;2023-11-19T02:22:21;814.83;;;741.60;;
24305;SDS011;12423;48.768;8.850;2023-11-19T02:24:51;830.10;;;755.85;;
24305;SDS011;12423;48.768;8.850;2023-11-19T02:27:26;827.65;;;752.17;;
24305;SDS011;12423;48.768;8.850;2023-11-19T02:29:59;808.90;;;731.20;;
24305;SDS011;12423;48.768;8.850;2023-11-19T02:32:27;819.38;;;742.97;;
24305;SDS011;12423;48.768;8.850;2023-11-19T02:34:57;830.37;;;754.10;;
24305;SDS011;12423;48.768;8.850;2023-11-19T02:37:33;830.03;;;753.78;;
24305;SDS011;12423;48.768;8.850;2023-11-19T02:40:02;828.08;;;751.42;;
24305;SDS011;12423;48.768;8.850;2023-11-19T02:42:31;835.20;;;758.63;;
24305;SDS011;12423;48.768;8.850;2023-11-19T02:45:01;817.67;;;741.95;;
24305;SDS011;12423;48.768;8.850;2023-11-19T02:47:32;823.15;;;748.30;;
24305;SDS011;12423;48.768;8.850;2023-11-19T02:50:00;811.92;;;736.83;;
24305;SDS011;12423;48.768;8.850;2023-11-19T02:52:29;825.75;;;750.10;;
24305;SDS011;12423;48.768;8.850;2023-11-19T02:55:01;824.15;;;749.00;;
24305;SDS011;12423;48.768;8.850;2023-11-19T02:57:30;832.35;;;756.20;;
24305;SDS011;12423;48.768;8.850;2023-11-19T02:59:58;822.10;;;746.67;;
24305;SDS011;12423;48.768;8.850;2023-11-19T03:02:27;823.40;;;747.63;;
24305;SDS011;12423;48.768;8.850;2023-11-19T03:05:00;838.08;;;762.63;;
24305;SDS011;12423;48.768;8.850;2023-11-19T03:07:28;830.10;;;753.72;;
24305;SDS011;12423;48.768;8.850;2023-11-19T03:09:55;836.78;;;759.88;;
24305;SDS011;12423;48.768;8.850;2023-11-19T03:12:23;831.08;;;753.47;;
24305;SDS011;12423;48.768;8.850;2023-11-19T03:14:52;819.85;;;744.70;;
24305;SDS011;12423;48.768;8.850;2023-11-19T03:17:21;839.72;;;764.65;;
24305;SDS011;12423;48.768;8.850;2023-11-19T03:19:51;841.67;;;765.78;;
24305;SDS011;12423;48.768;8.850;2023-11-19T03:22:19;834.08;;;758.28;;
24305;SDS011;12423;48.768;8.850;2023-11-19T03:24:47;835.42;;;760.40;;
24305;SDS011;12423;48.768;8.850;2023-11-19T03:27:17;848.67;;;772.50;;
24305;SDS011;12423;48.768;8.850;2023-11-19T03:29:45;846.93;;;771.57;;
24305;SDS011;12423;48.768;8.850;2023-11-19T03:32:13;823.38;;;747.70;;
24305;SDS011;12423;48.768;8.850;2023-11-19T03:34:41;835.50;;;759.20;;
24305;SDS011;12423;48.768;8.850;2023-11-19T03:37:10;842.87;;;766.23;;
24305;SDS011;12423;48.768;8.850;2023-11-19T03:39:39;852.35;;;777.15;;
24305;SDS011;12423;48.768;8.850;2023-11-19T03:42:06;846.45;;;770.58;;
24305;SDS011;12423;48.768;8.850;2023-11-19T03:44:34;844.05;;;767.00;;
24305;SDS011;12423;48.768;8.850;2023-11-19T03:47:02;842.08;;;765.83;;
24305;SDS011;12423;48.768;8.850;2023-11-19T03:49:30;847.67;;;770.85;;
24305;SDS011;12423;48.768;8.850;2023-11-19T03:51:58;849.28;;;771.28;;
24305;SDS011;12423;48.768;8.850;2023-11-19T03:54:28;844.73;;;767.97;;
24305;SDS011;12423;48.768;8.850;2023-11-19T03:56:55;848.70;;;772.57;;
24305;SDS011;12423;48.768;8.850;2023-11-19T03:59:23;850.13;;;773.55;;
24305;SDS011;12423;48.768;8.850;2023-11-19T04:01:51;867.42;;;789.95;;
24305;SDS011;12423;48.768;8.850;2023-11-19T04:04:20;848.35;;;770.53;;
24305;SDS011;12423;48.768;8.850;2023-11-19T04:06:48;848.83;;;771.78;;
24305;SDS011;12423;48.768;8.850;2023-11-19T04:09:15;839.20;;;761.95;;
24305;SDS011;12423;48.768;8.850;2023-11-19T04:11:44;826.75;;;749.10;;
24305;SDS011;12423;48.768;8.850;2023-11-19T04:14:13;830.33;;;752.63;;
24305;SDS011;12423;48.768;8.850;2023-11-19T04:16:41;808.88;;;730.83;;
24305;SDS011;12423;48.768;8.850;2023-11-19T04:19:09;828.33;;;750.40;;
24305;SDS011;12423;48.768;8.850;2023-11-19T04:21:37;833.65;;;756.55;;
24305;SDS011;12423;48.768;8.850;2023-11-19T04:24:08;822.90;;;746.30;;
24305;SDS011;12423;48.768;8.850;2023-11-19T04:26:40;827.25;;;749.55;;
24305;SDS011;12423;48.768;8.850;2023-11-19T04:29:11;832.13;;;754.60;;
24305;SDS011;12423;48.768;8.850;2023-11-19T04:31:39;835.28;;;756.90;;
24305;SDS011;12423;48.768;8.850;2023-11-19T04:34:07;833.97;;;754.50;;
24305;SDS011;12423;48.768;8.850;2023-11-19T04:36:35;851.77;;;772.97;;
24305;SDS011;12423;48.768;8.850;2023-11-19T04:39:03;850.38;;;770.55;;
24305;SDS011;12423;48.768;8.850;2023-11-19T04:41:35;850.22;;;770.40;;
24305;SDS011;12423;48.768;8.850;2023-11-19T04:44:03;837.43;;;757.70;;
24305;SDS011;12423;48.768;8.850;2023-11-19T04:46:32;840.25;;;761.08;;
24305;SDS011;12423;48.768;8.850;2023-11-19T04:49:00;833.22;;;753.10;;
24305;SDS011;12423;48.768;8.850;2023-11-19T04:51:27;839.08;;;758.85;;
24305;SDS011;12423;48.768;8.850;2023-11-19T04:53:55;847.10;;;766.63;;
24305;SDS011;12423;48.768;8.850;2023-11-19T04:56:23;845.00;;;764.60;;
24305;SDS011;12423;48.768;8.850;2023-11-19T04:58:50;822.00;;;742.00;;
24305;SDS011;12423;48.768;8.850;2023-11-19T05:01:18;846.50;;;766.60;;
24305;SDS011;12423;48.768;8.850;2023-11-19T05:03:48;835.53;;;756.92;;
24305;SDS011;12423;48.768;8.850;2023-11-19T05:06:17;838.25;;;757.65;;
24305;SDS011;12423;48.768;8.850;2023-11-19T05:08:45;841.13;;;759.60;;
24305;SDS011;12423;48.768;8.850;2023-11-19T05:11:13;849.97;;;768.85;;
24305;SDS011;12423;48.768;8.850;2023-11-19T05:13:44;849.33;;;768.95;;
24305;SDS011;12423;48.768;8.850;2023-11-19T05:16:12;859.03;;;776.47;;
24305;SDS011;12423;48.768;8.850;2023-11-19T05:18:41;850.58;;;769.17;;
24305;SDS011;12423;48.768;8.850;2023-11-19T05:21:11;874.00;;;792.35;;
24305;SDS011;12423;48.768;8.850;2023-11-19T05:23:38;871.45;;;789.25;;
24305;SDS011;12423;48.768;8.850;2023-11-19T05:26:08;867.73;;;785.03;;
24305;SDS011;12423;48.768;8.850;2023-11-19T05:28:37;869.17;;;787.67;;
24305;SDS011;12423;48.768;8.850;2023-11-19T05:31:05;881.25;;;798.05;;
24305;SDS011;12423;48.768;8.850;2023-11-19T05:33:33;869.65;;;787.47;;
24305;SDS011;12423;48.768;8.850;2023-11-19T05:36:01;870.58;;;787.90;;
24305;SDS011;12423;48.768;8.850;2023-11-19T05:38:31;877.77;;;795.87;;
24305;SDS011;12423;48.768;8.850;2023-11-19T05:40:58;877.95;;;796.22;;
24305;SDS011;12423;48.768;8.850;2023-11-19T05:43:26;883.45;;;801.20;;
24305;SDS011;12423;48.768;8.850;2023-11-19T05:45:54;882.10;;;799.03;;
24305;SDS011;12423;48.768;8.850;2023-11-19T05:48:21;899.35;;;816.92;;
24305;SDS011;12423;48.768;8.850;2023-11-19T05:50:49;892.05;;;810.15;;
24305;SDS011;12423;48.768;8.850;2023-11-19T05:53:17;896.50;;;815.87;;
24305;SDS011;12423;48.768;8.850;2023-11-19T05:55:47;889.17;;;806.53;;
24305;SDS011;12423;48.768;8.850;2023-11-19T05:58:22;876.30;;;793.05;;
24305;SDS011;12423;48.768;8.850;2023-11-19T06:00:52;874.53;;;791.60;;
24305;SDS011;12423;48.768;8.850;2023-11-19T06:03:19;884.97;;;803.30;;
24305;SDS011;12423;48.768;8.850;2023-11-19T06:05:48;872.42;;;790.95;;
24305;SDS011;12423;48.768;8.850;2023-11-19T06:08:16;873.38;;;792.33;;
24305;SDS011;12423;48.768;8.850;2023-11-19T06:10:44;882.05;;;800.83;;
24305;SDS011;12423;48.768;8.850;2023-11-19T06:13:14;883.45;;;802.75;;
24305;SDS011;12423;48.768;8.850;2023-11-19T06:15:42;886.03;;;805.35;;
24305;SDS011;12423;48.768;8.850;2023-11-19T06:18:10;883.38;;;803.78;;
24305;SDS011;12423;48.768;8.850;2023-11-19T06:20:40;891.72;;;810.20;;
24305;SDS011;12423;48.768;8.850;2023-11-19T06:23:09;890.20;;;809.50;;
24305;SDS011;12423;48.768;8.850;2023-11-19T06:25:37;887.70;;;806.30;;
24305;SDS011;12423;48.768;8.850;2023-11-19T06:28:04;895.72;;;814.28;;
24305;SDS011;12423;48.768;8.850;2023-11-19T06:30:34;890.87;;;810.63;;
24305;SDS011;12423;48.768;8.850;2023-11-19T06:33:02;890.63;;;809.77;;
24305;SDS011;12423;48.768;8.850;2023-11-19T06:35:30;908.13;;;831.78;;
24305;SDS011;12423;48.768;8.850;2023-11-19T06:38:02;890.15;;;814.00;;
24305;SDS011;12423;48.768;8.850;2023-11-19T06:40:31;895.28;;;820.45;;
24305;SDS011;12423;48.768;8.850;2023-11-19T06:42:59;926.90;;;851.38;;
24305;SDS011;12423;48.768;8.850;2023-11-19T06:45:27;920.08;;;844.10;;
24305;SDS011;12423;48.768;8.850;2023-11-19T06:47:56;908.83;;;829.92;;
24305;SDS011;12423;48.768;8.850;2023-11-19T06:50:25;897.65;;;818.90;;
24305;SDS011;12423;48.768;8.850;2023-11-19T06:52:52;905.25;;;824.88;;
24305;SDS011;12423;48.768;8.850;2023-11-19T06:55:20;914.27;;;834.27;;
24305;SDS011;12423;48.768;8.850;2023-11-19T06:57:48;919.20;;;839.65;;
24305;SDS011;12423;48.768;8.850;2023-11-19T07:00:16;922.55;;;843.90;;
24305;SDS011;12423;48.768;8.850;2023-11-19T07:02:44;907.35;;;829.85;;
24305;SDS011;12423;48.768;8.850;2023-11-19T07:05:13;898.40;;;820.90;;
24305;SDS011;12423;48.768;8.850;2023-11-19T07:07:41;900.23;;;823.20;;
24305;SDS011;12423;48.768;8.850;2023-11-19T07:10:09;919.78;;;842.05;;
24305;SDS011;12423;48.768;8.850;2023-11-19T07:12:36;901.05;;;824.95;;
24305;SDS011;12423;48.768;8.850;2023-11-19T07:15:04;905.30;;;826.40;;
24305;SDS011;12423;48.768;8.850;2023-11-19T07:17:33;902.67;;;825.15;;
24305;SDS011;12423;48.768;8.850;2023-11-19T07:20:02;908.85;;;829.55;;
24305;SDS011;12423;48.768;8.850;2023-11-19T07:22:33;913.08;;;833.60;;
24305;SDS011;12423;48.768;8.850;2023-11-19T07:25:01;911.13;;;832.60;;
24305;SDS011;12423;48.768;8.850;2023-11-19T07:27:28;916.25;;;836.80;;
24305;SDS011;12423;48.768;8.850;2023-11-19T07:29:56;918.08;;;838.85;;
24305;SDS011;12423;48.768;8.850;2023-11-19T07:32:24;914.67;;;836.45;;
24305;SDS011;12423;48.768;8.850;2023-11-19T07:34:52;910.78;;;838.80;;
24305;SDS011;12423;48.768;8.850;2023-11-19T07:37:19;917.43;;;841.03;;
24305;SDS011;12423;48.768;8.850;2023-11-19T07:39:52;905.97;;;831.42;;
24305;SDS011;12423;48.768;8.850;2023-11-19T07:42:22;908.77;;;834.73;;
24305;SDS011;12423;48.768;8.850;2023-11-19T07:44:50;905.47;;;829.28;;
24305;SDS011;12423;48.768;8.850;2023-11-19T07:47:18;925.38;;;848.15;;
24305;SDS011;12423;48.768;8.850;2023-11-19T07:49:52;916.60;;;840.20;;
24305;SDS011;12423;48.768;8.850;2023-11-19T07:52:19;918.23;;;842.37;;
24305;SDS011;12423;48.768;8.850;2023-11-19T07:54:48;918.30;;;842.38;;
24305;SDS011;12423;48.768;8.850;2023-11-19T07:57:17;920.90;;;843.97;;
24305;SDS011;12423;48.768;8.850;2023-11-19T07:59:44;920.53;;;843.37;;
24305;SDS011;12423;48.768;8.850;2023-11-19T08:02:12;913.35;;;836.40;;
24305;SDS011;12423;48.768;8.850;2023-11-19T08:04:41;918.25;;;841.33;;
24305;SDS011;12423;48.768;8.850;2023-11-19T08:07:12;918.35;;;844.08;;
24305;SDS011;12423;48.768;8.850;2023-11-19T08:09:40;928.25;;;860.30;;
24305;SDS011;12423;48.768;8.850;2023-11-19T08:12:08;935.75;;;868.03;;
24305;SDS011;12423;48.768;8.850;2023-11-19T08:14:37;931.70;;;863.70;;
24305;SDS011;12423;48.768;8.850;2023-11-19T08:17:06;943.95;;;874.65;;
24305;SDS011;12423;48.768;8.850;2023-11-19T08:19:34;947.03;;;877.55;;
24305;SDS011;12423;48.768;8.850;2023-11-19T08:22:02;945.22;;;878.80;;
24305;SDS011;12423;48.768;8.850;2023-11-19T08:24:30;951.10;;;884.03;;
24305;SDS011;12423;48.768;8.850;2023-11-19T08:26:58;970.33;;;898.95;;
24305;SDS011;12423;48.768;8.850;2023-11-19T08:29:29;960.78;;;889.70;;
24305;SDS011;12423;48.768;8.850;2023-11-19T08:31:58;983.33;;;911.07;;
24305;SDS011;12423;48.768;8.850;2023-11-19T08:34:28;973.70;;;899.50;;
24305;SDS011;12423;48.768;8.850;2023-11-19T08:36:56;968.70;;;892.83;;
24305;SDS011;12423;48.768;8.850;2023-11-19T08:39:24;965.63;;;891.45;;
24305;SDS011;12423;48.768;8.850;2023-11-19T08:41:52;972.17;;;896.40;;
24305;SDS011;12423;48.768;8.850;2023-11-19T08:44:19;978.25;;;900.33;;
24305;SDS011;12423;48.768;8.850;2023-11-19T08:46:48;982.40;;;904.97;;
24305;SDS011;12423;48.768;8.850;2023-11-19T08:49:17;981.13;;;903.33;;
24305;SDS011;12423;48.768;8.850;2023-11-19T08:51:45;980.03;;;902.92;;
24305;SDS011;12423;48.768;8.850;2023-11-19T08:54:13;983.30;;;904.63;;
24305;SDS011;12423;48.768;8.850;2023-11-19T08:56:40;985.80;;;906.28;;
24305;SDS011;12423;48.768;8.850;2023-11-19T08:59:08;983.08;;;904.10;;
24305;SDS011;12423;48.768;8.850;2023-11-19T09:01:36;975.65;;;895.92;;
24305;SDS011;12423;48.768;8.850;2023-11-19T09:04:03;975.03;;;897.83;;
24305;SDS011;12423;48.768;8.850;2023-11-19T09:06:34;965.17;;;886.00;;
24305;SDS011;12423;48.768;8.850;2023-11-19T09:09:03;968.75;;;891.75;;
24305;SDS011;12423;48.768;8.850;2023-11-19T09:11:31;982.33;;;903.35;;
24305;SDS011;12423;48.768;8.850;2023-11-19T09:13:59;988.53;;;917.10;;
24305;SDS011;12423;48.768;8.850;2023-11-19T09:16:27;983.22;;;904.33;;
24305;SDS011;12423;48.768;8.850;2023-11-19T09:18:55;992.33;;;912.70;;
24305;SDS011;12423;48.768;8.850;2023-11-19T09:21:24;987.95;;;908.30;;
24305;SDS011;12423;48.768;8.850;2023-11-19T09:23:53;983.33;;;903.58;;
24305;SDS011;12423;48.768;8.850;2023-11-19T09:26:20;987.05;;;908.72;;
24305;SDS011;12423;48.768;8.850;2023-11-19T09:28:48;980.58;;;899.75;;
24305;SDS011;12423;48.768;8.850;2023-11-19T09:31:16;990.40;;;908.37;;
24305;SDS011;12423;48.768;8.850;2023-11-19T09:33:45;1008.28;;;933.58;;
24305;SDS011;12423;48.768;8.850;2023-11-19T09:36:12;1009.20;;;934.90;;
24305;SDS011;12423;48.768;8.850;2023-11-19T09:38:41;1000.33;;;926.78;;
24305;SDS011;12423;48.768;8.850;2023-11-19T09:41:10;987.90;;;915.17;;
24305;SDS011;12423;48.768;8.850;2023-11-19T09:43:40;981.70;;;904.83;;
24305;SDS011;12423;48.768;8.850;2023-11-19T09:46:09;986.90;;;909.42;;
24305;SDS011;12423;48.768;8.850;2023-11-19T09:48:38;993.10;;;915.15;;
24305;SDS011;12423;48.768;8.850;2023-11-19T09:51:06;993.83;;;915.63;;
24305;SDS011;12423;48.768;8.850;2023-11-19T09:53:35;995.78;;;916.70;;
24305;SDS011;12423;48.768;8.850;2023-11-19T09:56:03;999.35;;;920.53;;
24305;SDS011;12423;48.768;8.850;2023-11-19T09:58:33;986.35;;;912.15;;
24305;SDS011;12423;48.768;8.850;2023-11-19T10:01:01;981.25;;;903.08;;
24305;SDS011;12423;48.768;8.850;2023-11-19T10:03:36;980.38;;;902.75;;
24305;SDS011;12423;48.768;8.850;2023-11-19T10:06:06;986.33;;;908.55;;
24305;SDS011;12423;48.768;8.850;2023-11-19T10:08:36;985.20;;;907.80;;
24305;SDS011;12423;48.768;8.850;2023-11-19T10:11:05;978.28;;;902.03;;
24305;SDS011;12423;48.768;8.850;2023-11-19T10:13:35;998.83;;;922.22;;
24305;SDS011;12423;48.768;8.850;2023-11-19T10:16:07;981.22;;;906.20;;
24305;SDS011;12423;48.768;8.850;2023-11-19T10:18:35;992.17;;;916.28;;
24305;SDS011;12423;48.768;8.850;2023-11-19T10:21:06;990.40;;;912.63;;
24305;SDS011;12423;48.768;8.850;2023-11-19T10:23:47;982.33;;;905.83;;
24305;SDS011;12423;48.768;8.850;2023-11-19T10:26:16;988.70;;;914.75;;
24305;SDS011;12423;48.768;8.850;2023-11-19T10:28:46;981.63;;;909.38;;
24305;SDS011;12423;48.768;8.850;2023-11-19T10:31:15;992.22;;;918.65;;
24305;SDS011;12423;48.768;8.850;2023-11-19T10:33:44;978.67;;;905.10;;
24305;SDS011;12423;48.768;8.850;2023-11-19T10:36:12;987.08;;;913.75;;
24305;SDS011;12423;48.768;8.850;2023-11-19T10:38:41;983.05;;;910.80;;
24305;SDS011;12423;48.768;8.850;2023-11-19T10:41:29;979.85;;;905.72;;
24305;SDS011;12423;48.768;8.850;2023-11-19T10:43:59;983.40;;;908.67;;
24305;SDS011;12423;48.768;8.850;2023-11-19T10:46:36;989.10;;;913.08;;
24305;SDS011;12423;48.768;8.850;2023-11-19T10:49:05;995.77;;;921.37;;
24305;SDS011;12423;48.768;8.850;2023-11-19T10:51:33;988.67;;;914.35;;
24305;SDS011;12423;48.768;8.850;2023-11-19T10:54:02;994.37;;;918.83;;
24305;SDS011;12423;48.768;8.850;2023-11-19T10:56:32;995.65;;;919.72;;
24305;SDS011;12423;48.768;8.850;2023-11-19T10:59:02;1002.25;;;924.42;;
24305;SDS011;12423;48.768;8.850;2023-11-19T11:01:47;1004.95;;;926.97;;
24305;SDS011;12423;48.768;8.850;2023-11-19T11:04:19;998.55;;;921.17;;
24305;SDS011;12423;48.768;8.850;2023-11-19T11:06:50;1001.87;;;924.17;;
24305;SDS011;12423;48.768;8.850;2023-11-19T11:09:19;1004.83;;;926.08;;
24305;SDS011;12423;48.768;8.850;2023-11-19T11:11:48;1002.77;;;923.70;;
24305;SDS011;12423;48.768;8.850;2023-11-19T11:14:20;1001.90;;;923.65;;
24305;SDS011;12423;48.768;8.850;2023-11-19T11:16:49;989.78;;;910.38;;
24305;SDS011;12423;48.768;8.850;2023-11-19T11:19:17;1015.30;;;938.55;;
24305;SDS011;12423;48.768;8.850;2023-11-19T11:21:47;1002.87;;;924.57;;
24305;SDS011;12423;48.768;8.850;2023-11-19T11:24:30;1026.00;;;944.97;;
24305;SDS011;12423;48.768;8.850;2023-11-19T11:30:31;1074.82;;;991.17;;
24305;SDS011;12423;48.768;8.850;2023-11-19T11:33:15;1115.82;;;999.90;;
24305;SDS011;12423;48.768;8.850;2023-11-19T11:36:02;1139.63;;;999.90;;
24305;SDS011;12423;48.768;8.850;2023-11-19T11:38:40;1167.00;;;999.90;;
24305;SDS011;12423;48.768;8.850;2023-11-19T11:41:20;1163.07;;;999.90;;
24305;SDS011;12423;48.768;8.850;2023-11-19T11:43:53;1169.60;;;999.90;;
24305;SDS011;12423;48.768;8.850;2023-11-19T11:49:26;1190.80;;;999.90;;
24305;SDS011;12423;48.768;8.850;2023-11-19T11:52:02;1194.30;;;999.90;;
24305;SDS011;12423;48.768;8.850;2023-11-19T11:54:31;1213.32;;;999.90;;
24305;SDS011;12423;48.768;8.850;2023-11-19T11:57:02;1226.07;;;999.90;;
24305;SDS011;12423;48.768;8.850;2023-11-19T11:59:47;1216.13;;;999.90;;
24305;SDS011;12423;48.768;8.850;2023-11-19T12:02:18;1223.13;;;999.90;;
24305;SDS011;12423;48.768;8.850;2023-11-19T12:04:48;1211.65;;;999.90;;
24305;SDS011;12423;48.768;8.850;2023-11-19T12:07:19;1210.03;;;999.90;;
24305;SDS011;12423;48.768;8.850;2023-11-19T12:09:51;1208.93;;;999.90;;
24305;SDS011;12423;48.768;8.850;2023-11-19T12:12:22;1206.50;;;999.90;;
24305;SDS011;12423;48.768;8.850;2023-11-19T12:15:05;1211.15;;;999.90;;
24305;SDS011;12423;48.768;8.850;2023-11-19T12:17:40;1222.07;;;999.90;;
24305;SDS011;12423;48.768;8.850;2023-11-19T12:20:11;1218.68;;;999.90;;
24305;SDS011;12423;48.768;8.850;2023-11-19T12:22:39;1208.57;;;999.90;;
24305;SDS011;12423;48.768;8.850;2023-11-19T12:25:09;1211.75;;;999.90;;
24305;SDS011;12423;48.768;8.850;2023-11-19T12:27:39;1222.70;;;999.90;;
24305;SDS011;12423;48.768;8.850;2023-11-19T12:30:07;1246.90;;;999.90;;
24305;SDS011;12423;48.768;8.850;2023-11-19T12:32:40;1072.65;;;978.97;;
24305;SDS011;12423;48.768;8.850;2023-11-19T12:35:09;1231.03;;;999.90;;
24305;SDS011;12423;48.768;8.850;2023-11-19T12:37:39;1233.85;;;999.90;;
24305;SDS011;12423;48.768;8.850;2023-11-19T12:40:11;1226.68;;;999.90;;
24305;SDS011;12423;48.768;8.850;2023-11-19T12:42:43;1219.30;;;999.90;;
24305;SDS011;12423;48.768;8.850;2023-11-19T12:45:11;1223.83;;;999.90;;
24305;SDS011;12423;48.768;8.850;2023-11-19T12:47:41;1241.05;;;999.90;;
24305;SDS011;12423;48.768;8.850;2023-11-19T12:50:09;1254.65;;;999.90;;
24305;SDS011;12423;48.768;8.850;2023-11-19T12:52:38;1251.25;;;999.90;;
24305;SDS011;12423;48.768;8.850;2023-11-19T12:57:56;1228.30;;;999.90;;
24305;SDS011;12423;48.768;8.850;2023-11-19T13:00:25;1226.28;;;999.90;;
24305;SDS011;12423;48.768;8.850;2023-11-19T13:02:56;1230.13;;;999.90;;
24305;SDS011;12423;48.768;8.850;2023-11-19T13:05:26;1232.13;;;999.90;;
24305;SDS011;12423;48.768;8.850;2023-11-19T13:07:58;1225.20;;;999.90;;
24305;SDS011;12423;48.768;8.850;2023-11-19T13:10:27;1220.23;;;999.90;;
24305;SDS011;12423;48.768;8.850;2023-11-19T13:13:04;1226.97;;;999.90;;
24305;SDS011;12423;48.768;8.850;2023-11-19T13:15:34;1226.55;;;999.90;;
24305;SDS011;12423;48.768;8.850;2023-11-19T13:18:04;1224.47;;;999.90;;
24305;SDS011;12423;48.768;8.850;2023-11-19T13:20:33;1238.13;;;999.90;;
24305;SDS011;12423;48.768;8.850;2023-11-19T13:23:01;1242.57;;;999.90;;
24305;SDS011;12423;48.768;8.850;2023-11-19T13:25:31;1259.60;;;999.90;;
24305;SDS011;12423;48.768;8.850;2023-11-19T13:27:59;1267.22;;;999.90;;
24305;SDS011;12423;48.768;8.850;2023-11-19T13:30:27;1269.60;;;999.90;;
24305;SDS011;12423;48.768;8.850;2023-11-19T13:32:55;1246.90;;;999.90;;
24305;SDS011;12423;48.768;8.850;2023-11-19T13:35:24;1234.80;;;999.90;;
24305;SDS011;12423;48.768;8.850;2023-11-19T13:37:54;1224.85;;;999.90;;
24305;SDS011;12423;48.768;8.850;2023-11-19T13:40:21;1218.68;;;999.90;;
24305;SDS011;12423;48.768;8.850;2023-11-19T13:42:51;1214.28;;;999.90;;
24305;SDS011;12423;48.768;8.850;2023-11-19T13:45:18;1228.22;;;999.90;;
24305;SDS011;12423;48.768;8.850;2023-11-19T13:47:47;1228.65;;;999.90;;
24305;SDS011;12423;48.768;8.850;2023-11-19T13:50:15;1236.32;;;999.90;;
24305;SDS011;12423;48.768;8.850;2023-11-19T13:52:45;1222.43;;;999.90;;
24305;SDS011;12423;48.768;8.850;2023-11-19T13:55:14;1217.65;;;999.90;;
24305;SDS011;12423;48.768;8.850;2023-11-19T13:57:42;1205.18;;;999.90;;
24305;SDS011;12423;48.768;8.850;2023-11-19T14:00:11;1186.63;;;999.90;;
24305;SDS011;12423;48.768;8.850;2023-11-19T14:02:40;1169.20;;;999.90;;
24305;SDS011;12423;48.768;8.850;2023-11-19T14:05:08;1149.55;;;999.90;;
24305;SDS011;12423;48.768;8.850;2023-11-19T14:07:37;1134.18;;;999.90;;
24305;SDS011;12423;48.768;8.850;2023-11-19T14:10:06;1113.97;;;999.90;;
24305;SDS011;12423;48.768;8.850;2023-11-19T14:12:35;1111.25;;;999.90;;
24305;SDS011;12423;48.768;8.850;2023-11-19T14:15:04;1103.40;;;999.90;;